Latest Weather Observations for Cobar Airport

IDN60801

Issued at 12:32 pm EST Thursday 26 May 2016 (issued every 30 minutes, with the page automatically refreshed every 10 minutes)

About weather observations | Map of weather stations | Latest weather observations for NSW | Other Formats
Station Details ID: 048237 Name: COBAR AIRPORT AWS Lat: -31.54 Lon: 145.80 Height: 218.0 m
Data from the previous 72 hours. | See also: Recent months at Cobar Airport
Date/Time
EST
Temp
°C
App
Temp
°C
Dew
Point
Rel
Hum
%
Delta-T
°C
Wind Press
QNH
hPa
Press
MSL
hPa
Rain
since 9 am
mm
Dir
 
Spd
km/h
Gust
km/h
Spd
kts
Gust
kts
26/12:30pm 16.2 13.7 13.5 84 1.5 WNW 19 28 10 15 1007.2 1007.0 0.2
26/12:25pm 16.3 13.9 13.8 85 1.4 WNW 19 28 10 15 1007.1 1006.9 0.2
26/12:23pm 16.1 13.5 13.2 83 1.6 WNW 19 26 10 14 1007.1 1006.9 0.2
26/12:10pm 15.9 13.2 13.4 85 1.4 NW 20 28 11 15 1007.2 1007.0 0.2
26/12:00pm 15.7 12.9 13.2 85 1.4 NNW 20 28 11 15 1007.5 1007.3 0.2
26/11:30am 15.4 12.6 12.7 84 1.5 NW 19 24 10 13 1008.0 1007.9 0.2
26/11:00am 14.6 12.6 12.6 88 1.1 NW 15 20 8 11 1008.3 1008.2 0.2
26/10:30am 13.3 10.9 11.5 89 1.0 NNW 15 20 8 11 1008.9 1008.8 0.2
26/10:00am 12.4 10.5 10.5 88 1.0 N 11 17 6 9 1009.3 1009.2 0.2
26/09:30am 12.1 9.2 9.5 84 1.3 N 15 20 8 11 1009.2 1009.1 0.2
26/09:00am 12.5 9.1 9.1 80 1.7 N 17 24 9 13 1009.3 1009.2 20.0
26/08:30am 11.9 8.2 9.5 85 1.2 NNE 19 26 10 14 1008.9 1008.8 20.0
26/08:00am 11.0 7.3 9.6 91 0.7 NNE 19 30 10 16 1009.1 1009.0 20.0
26/07:30am 10.8 6.9 9.6 92 0.6 NNE 20 28 11 15 1009.1 1009.0 20.0
26/07:00am 10.9 6.3 9.5 91 0.7 NNE 24 33 13 18 1009.9 1009.7 20.0
26/06:30am 10.9 8.4 9.7 92 0.6 NNE 13 17 7 9 1011.0 1010.8 17.6
26/06:00am 11.1 8.4 10.5 96 0.3 NNE 15 20 8 11 1010.5 1010.3 15.4
26/05:30am 10.7 8.3 10.2 97 0.3 NNE 13 17 7 9 1010.2 1010.0 14.4
26/05:00am 10.7 7.1 9.9 95 0.4 NE 19 28 10 15 1010.2 1010.0 11.2
26/04:30am 11.1 7.9 9.9 92 0.6 NE 17 22 9 12 1010.7 1010.5 8.4
26/04:00am 11.3 9.4 10.5 95 0.4 NNE 11 17 6 9 1011.3 1011.1 7.6
26/03:30am 11.2 9.3 10.6 96 0.3 NE 11 13 6 7 1011.6 1011.5 6.6
26/03:16am 11.1 10.1 10.3 95 0.4 NE 6 9 3 5 1011.9 1011.8 6.2
26/03:01am 11.1 9.5 10.2 94 0.5 NNE 9 15 5 8 1012.3 1012.2 5.2
26/03:00am 11.1 9.1 10.2 94 0.5 NNE 11 15 6 8 1012.3 1012.2 5.2
26/02:30am 11.7 9.8 10.4 92 0.7 NNE 11 17 6 9 1012.8 1012.7 3.0
26/02:00am 11.6 9.7 10.5 93 0.6 NNE 11 15 6 8 1013.2 1013.1 1.6
26/01:30am 12.0 9.9 9.6 85 1.2 NE 11 15 6 8 1013.4 1013.3 1.0
26/01:00am 13.4 12.9 7.8 69 2.8 CALM 0 6 0 3 1014.4 1014.3 0.2
26/12:30am 14.7 9.6 5.8 55 4.3 SW 22 30 12 16 1015.1 1014.9 0.0
26/12:27am 14.5 10.3 5.6 55 4.3 WSW 17 30 9 16 1015.1 1014.9 0.0
26/12:00am 14.8 12.4 5.3 53 4.5 NE 7 9 4 5 1012.9 1012.8 0.0
 
Date/Time
EST
Temp
°C
App
Temp
°C
Dew
Point
Rel
Hum
%
Delta-T
°C
Wind Press
QNH
hPa
Press
MSL
hPa
Rain
since 9 am
mm
Dir
 
Spd
km/h
Gust
km/h
Spd
kts
Gust
kts
25/11:30pm 15.0 12.2 5.2 52 4.7 NE 9 13 5 7 1012.9 1012.8 0.0
25/11:00pm 15.0 12.3 5.5 53 4.6 NE 9 11 5 6 1013.5 1013.4 0.0
25/10:30pm 14.7 11.6 5.5 54 4.4 NNE 11 13 6 7 1013.5 1013.4 0.0
25/10:00pm 14.7 11.7 6.0 56 4.2 NE 11 13 6 7 1013.7 1013.6 0.0
25/09:30pm 14.8 11.9 6.4 57 4.1 NE 11 13 6 7 1014.5 1014.4 0.0
25/09:00pm 14.6 12.1 6.7 59 3.9 NE 9 11 5 6 1015.2 1015.0 0.0
25/08:30pm 14.4 12.0 7.2 62 3.6 NE 9 11 5 6 1015.5 1015.4 0.0
25/08:00pm 14.6 12.7 6.9 60 3.8 NE 6 7 3 4 1015.6 1015.5 0.0
25/07:30pm 14.3 12.3 6.9 61 3.6 NE 7 9 4 5 1015.3 1015.1 0.0
25/07:00pm 14.8 12.6 6.4 57 4.1 ENE 7 9 4 5 1015.3 1015.1 0.0
25/06:30pm 15.3 13.3 6.1 54 4.5 NE 6 7 3 4 1015.3 1015.1 0.0
25/06:00pm 15.9 13.6 5.8 51 4.9 NE 7 9 4 5 1015.3 1015.1 0.0
25/05:30pm 16.3 14.2 5.6 49 5.2 NNE 6 7 3 4 1015.1 1014.9 0.0
25/05:00pm 17.2 14.9 5.5 46 5.7 N 7 9 4 5 1015.3 1015.1 0.0
25/04:30pm 17.7 14.4 4.3 41 6.4 N 11 15 6 8 1015.3 1015.1 0.0
25/04:00pm 18.2 14.8 4.0 39 6.8 NNW 11 15 6 8 1015.2 1015.0 0.0
25/03:30pm 18.6 14.7 3.3 36 7.2 N 13 19 7 10 1014.9 1014.7 0.0
25/03:00pm 18.7 14.9 3.7 37 7.1 N 13 20 7 11 1015.5 1015.4 0.0
25/02:30pm 19.0 14.6 4.7 39 7.0 NNE 17 24 9 13 1015.5 1015.4 0.0
25/02:00pm 18.2 14.4 4.0 39 6.8 N 13 22 7 12 1015.8 1015.7 0.0
25/01:30pm 17.9 14.1 4.1 40 6.6 N 13 22 7 12 1016.2 1016.1 0.0
25/01:00pm 17.1 13.1 4.8 44 5.9 NNW 15 22 8 12 1016.9 1016.8 0.0
25/12:30pm 17.5 13.2 5.1 44 6.0 N 17 26 9 14 1017.4 1017.3 0.0
25/12:00pm 17.1 13.3 5.7 47 5.6 N 15 20 8 11 1017.9 1017.8 0.0
25/11:30am 16.4 12.6 6.0 50 5.1 NNE 15 20 8 11 1018.4 1018.3 0.0
25/11:00am 15.7 11.6 6.4 54 4.6 N 17 24 9 13 1019.0 1018.9 0.0
25/10:30am 15.0 10.4 6.6 57 4.1 N 20 24 11 13 1019.2 1019.1 0.0
25/10:00am 14.4 10.6 7.5 63 3.4 NE 17 20 9 11 1019.4 1019.4 0.0
25/09:30am 13.2 10.1 7.2 67 2.9 NNE 13 19 7 10 1019.7 1019.6 0.0
25/09:18am 12.6 10.0 7.9 73 2.3 NE 11 15 6 8 1019.6 1019.5 0.0
25/09:17am 12.5 10.3 7.8 73 2.3 NE 9 15 5 8 1019.6 1019.5 0.0
25/09:00am 11.5 9.3 7.8 78 1.8 NE 9 13 5 7 1019.6 1019.5 0.0
25/08:58am 11.3 9.0 7.6 78 1.8 NE 9 13 5 7 1019.7 1019.6 0.0
25/08:30am 9.5 7.2 7.6 88 0.9 NE 9 13 5 7 1019.7 1019.6 0.0
25/08:00am 8.1 5.7 7.0 93 0.5 NE 9 9 5 5 1019.6 1019.5 0.0
25/07:30am 6.1 3.4 5.7 97 0.2 NE 9 11 5 6 1020.0 1019.9 0.0
25/07:00am 5.3 2.4 4.9 97 0.2 NE 9 9 5 5 1020.0 1019.9 0.0
25/06:30am 5.3 2.1 4.9 97 0.2 NE 11 13 6 7 1019.8 1019.7 0.0
25/06:00am 5.4 2.6 5.0 97 0.2 ENE 9 9 5 5 1019.9 1019.8 0.0
25/05:30am 4.8 1.8 4.2 96 0.3 NE 9 11 5 6 1020.0 1019.9 0.0
25/05:00am 4.9 2.3 4.2 95 0.3 NE 7 9 4 5 1019.8 1019.7 0.0
25/04:30am 5.0 2.1 4.6 97 0.2 NE 9 11 5 6 1019.7 1019.6 0.0
25/04:00am 4.8 2.4 4.2 96 0.3 ENE 6 7 3 4 1019.8 1019.7 0.0
25/03:30am 4.8 2.4 4.2 96 0.3 ENE 6 9 3 5 1019.7 1019.6 0.0
25/03:00am 4.8 3.5 4.1 95 0.3 CALM 0 0 0 0 1020.4 1020.3 0.0
25/02:30am 5.0 2.9 4.1 94 0.4 NE 4 7 2 4 1020.6 1020.5 0.0
25/02:00am 5.4 4.2 4.4 93 0.4 CALM 0 0 0 0 1020.8 1020.7 0.0
25/01:30am 5.6 3.2 4.4 92 0.5 NE 6 7 3 4 1020.8 1020.7 0.0
25/01:00am 6.1 3.9 5.1 93 0.4 NE 6 9 3 5 1020.9 1020.8 0.0
25/12:30am 6.2 3.8 5.3 94 0.4 NE 7 9 4 5 1021.0 1020.9 0.0
25/12:00am 5.9 4.8 4.9 93 0.4 CALM 0 0 0 0 1021.4 1021.3 0.0
 
Date/Time
EST
Temp
°C
App
Temp
°C
Dew
Point
Rel
Hum
%
Delta-T
°C
Wind Press
QNH
hPa
Press
MSL
hPa
Rain
since 9 am
mm
Dir
 
Spd
km/h
Gust
km/h
Spd
kts
Gust
kts
24/11:30pm 6.3 5.2 5.3 93 0.4 CALM 0 0 0 0 1021.7 1021.6 0.0
24/11:00pm 6.4 5.3 5.0 91 0.6 CALM 0 0 0 0 1021.6 1021.5 0.0
24/10:30pm 7.2 5.5 5.8 91 0.6 NE 4 6 2 3 1021.5 1021.4 0.0
24/10:00pm 7.5 5.3 6.3 92 0.6 NE 7 9 4 5 1021.6 1021.5 0.0
24/09:30pm 7.6 5.6 6.1 90 0.7 W 6 7 3 4 1022.1 1022.0 0.0
24/09:00pm 7.7 6.2 5.2 84 1.1 W 2 6 1 3 1022.3 1022.2 0.0
24/08:30pm 8.6 7.6 5.7 82 1.3 CALM 0 0 0 0 1022.1 1022.0 0.0
24/08:00pm 9.5 8.6 6.0 79 1.6 CALM 0 0 0 0 1021.9 1021.8 0.0
24/07:30pm 10.1 9.3 6.3 77 1.8 CALM 0 0 0 0 1021.8 1021.7 0.0
24/07:00pm 11.1 10.3 6.5 73 2.2 CALM 0 0 0 0 1021.7 1021.6 0.0
24/06:30pm 11.8 11.0 6.3 69 2.6 CALM 0 0 0 0 1021.5 1021.4 0.0
24/06:00pm 12.9 12.0 6.0 63 3.3 CALM 0 0 0 0 1021.4 1021.3 0.0
24/05:30pm 15.1 13.4 6.1 55 4.4 S 4 6 2 3 1021.3 1021.2 0.0
24/05:00pm 16.3 14.0 5.9 50 5.1 SSE 7 11 4 6 1021.2 1021.1 0.0
24/04:30pm 16.9 13.8 5.5 47 5.6 S 11 15 6 8 1021.4 1021.3 0.0
24/04:00pm 17.2 13.4 5.8 47 5.6 S 15 20 8 11 1021.5 1021.4 0.0
24/03:30pm 17.1 13.6 5.4 46 5.7 S 13 17 7 9 1021.5 1021.4 0.0
24/03:00pm 17.5 13.1 4.8 43 6.1 S 17 24 9 13 1021.5 1021.4 0.0
24/02:30pm 18.0 14.7 6.5 47 5.8 SSW 13 28 7 15 1021.4 1021.3 0.0
24/02:00pm 17.6 14.2 5.9 46 5.8 SSW 13 19 7 10 1021.8 1021.7 0.0
24/01:30pm 17.1 12.2 5.1 45 5.8 S 20 30 11 16 1022.2 1022.1 0.0
24/01:00pm 17.3 13.1 5.9 47 5.6 SSW 17 26 9 14 1022.7 1022.6 0.0
24/12:30pm 16.6 12.4 5.9 49 5.2 S 17 24 9 13 1023.2 1023.1 0.0
24/12:00pm 15.7 12.2 5.6 51 4.9 SSW 13 22 7 12 1023.5 1023.5 0.0
24/11:30am 15.7 12.0 6.2 53 4.7 SSW 15 20 8 11 1024.1 1024.1 0.0
24/11:00am 15.2 10.8 4.9 50 4.9 SSW 17 22 9 12 1024.6 1024.5 0.0
24/10:30am 14.1 9.8 3.3 48 4.9 SW 15 20 8 11 1024.9 1024.8 0.0
24/10:00am 13.4 9.6 4.0 53 4.3 SSW 13 19 7 10 1025.1 1025.0 0.0
24/09:30am 12.3 10.0 5.9 65 3.0 SW 7 11 4 6 1024.8 1024.7 0.0
24/09:00am 9.4 8.3 5.0 74 2.0 CALM 0 0 0 0 1024.8 1024.7 0.0
24/08:30am 7.9 6.3 4.7 80 1.4 NE 2 6 1 3 1024.7 1024.6 0.0
24/08:00am 5.7 4.6 5.0 95 0.3 CALM 0 0 0 0 1024.5 1024.4 0.0
24/07:30am 3.6 2.1 3.2 97 0.2 CALM 0 0 0 0 1023.9 1023.9 0.0
24/07:00am 2.5 0.8 1.8 95 0.3 CALM 0 0 0 0 1023.6 1023.6 0.0
24/06:30am 2.9 1.3 2.2 95 0.3 CALM 0 0 0 0 1023.3 1023.3 0.0
24/06:00am 3.1 1.5 2.4 95 0.3 CALM 0 0 0 0 1023.0 1022.9 0.0
24/05:30am 3.6 1.0 3.0 96 0.2 NE 6 7 3 4 1022.8 1022.7 0.0
24/05:00am 3.2 0.9 2.5 95 0.3 NE 4 9 2 5 1023.0 1022.9 0.0
24/04:30am 3.4 1.8 2.5 94 0.4 CALM 0 0 0 0 1023.1 1023.0 0.0
24/04:00am 3.7 2.2 2.8 94 0.4 CALM 0 0 0 0 1023.4 1023.4 0.0
24/03:30am 3.7 2.2 2.8 94 0.4 CALM 0 0 0 0 1023.6 1023.6 0.0
24/03:00am 4.2 2.8 3.3 94 0.4 CALM 0 0 0 0 1023.8 1023.8 0.0
24/02:30am 4.1 2.6 3.1 93 0.4 CALM 0 0 0 0 1023.7 1023.7 0.0
24/02:00am 4.5 1.9 3.3 92 0.5 NE 6 7 3 4 1023.7 1023.7 0.0
24/01:30am 4.9 3.5 3.6 91 0.5 CALM 0 0 0 0 1023.4 1023.4 0.0
24/01:00am 5.2 3.1 3.7 90 0.6 NE 4 6 2 3 1023.6 1023.6 0.0
24/12:30am 5.5 2.8 3.7 88 0.8 NE 7 9 4 5 1023.5 1023.5 0.0
24/12:00am 6.0 4.6 3.8 86 0.9 CALM 0 0 0 0 1023.5 1023.5 0.0
 
Date/Time
EST
Temp
°C
App
Temp
°C
Dew
Point
Rel
Hum
%
Delta-T
°C
Wind Press
QNH
hPa
Press
MSL
hPa
Rain
since 9 am
mm
Dir
 
Spd
km/h
Gust
km/h
Spd
kts
Gust
kts
23/11:30pm 6.4 5.1 4.1 85 1.0 CALM 0 0 0 0 1023.6 1023.6 0.0
23/11:00pm 6.6 5.2 3.8 82 1.2 CALM 0 6 0 3 1023.6 1023.6 0.0
23/10:30pm 7.1 4.6 3.7 79 1.5 SSW 6 7 3 4 1023.6 1023.6 0.0
23/10:00pm 7.8 6.4 3.5 74 1.9 CALM 0 0 0 0 1023.6 1023.6 0.0
23/09:30pm 9.3 7.9 3.5 67 2.5 CALM 0 0 0 0 1023.5 1023.5 0.0
23/09:00pm 10.0 6.8 3.3 63 2.9 SSW 9 11 5 6 1023.4 1023.4 0.0
23/08:30pm 10.9 7.3 3.2 59 3.4 SSW 11 13 6 7 1023.5 1023.5 0.0
23/08:00pm 11.2 7.7 3.5 59 3.4 SW 11 13 6 7 1023.4 1023.4 0.0
23/07:30pm 10.5 7.4 3.8 63 3.0 SW 9 11 5 6 1023.2 1023.1 0.0
23/07:00pm 11.2 8.1 3.5 59 3.4 S 9 11 5 6 1022.7 1022.6 0.0
23/06:30pm 12.5 9.8 2.7 51 4.3 SSW 6 7 3 4 1022.5 1022.4 0.0
23/06:00pm 13.6 10.4 2.8 48 4.8 SSW 9 11 5 6 1022.0 1021.9 0.0
23/05:30pm 15.5 11.4 2.0 40 6.0 SSW 13 17 7 9 1021.5 1021.4 0.0
23/05:00pm 16.8 11.8 1.3 35 6.9 SSW 17 22 9 12 1021.5 1021.4 0.0
23/04:30pm 17.9 12.5 1.0 32 7.6 S 19 28 10 15 1021.1 1021.0 0.0
23/04:00pm 18.3 13.4 1.8 33 7.5 SSW 17 24 9 13 1021.0 1020.9 0.0
23/03:30pm 18.4 12.3 0.5 30 8.0 S 22 30 12 16 1021.1 1021.0 0.0
23/03:00pm 18.6 13.4 2.4 34 7.5 SSW 19 26 10 14 1020.9 1020.8 0.0
23/02:30pm 18.6 13.2 2.4 34 7.5 S 20 28 11 15 1020.8 1020.7 0.0
23/02:00pm 18.6 13.5 2.9 35 7.3 SSW 19 28 10 15 1021.0 1020.9 0.0
23/01:30pm 18.7 13.1 3.3 36 7.3 S 22 33 12 18 1021.0 1020.9 0.0
23/01:00pm 18.1 11.4 3.6 38 6.8 SSW 28 35 15 19 1021.4 1021.3 0.0

Other Formats:

Comma delimited format used in spreadsheet applications
http://www.bom.gov.au/fwo/IDN60801/IDN60801.94710.axf

JavaScript Object Notation format (JSON) in row-major order
http://www.bom.gov.au/fwo/IDN60801/IDN60801.94710.json